sensor_id;sensor_type;location;lat;lon;timestamp;pressure;altitude;pressure_sealevel;temperature;humidity
17936;BME280;9093;52.062;4.508;2023-04-04T00:00:27;103390.38;;;7.17;52.46
17936;BME280;9093;52.062;4.508;2023-04-04T00:03:08;103388.63;;;7.13;52.44
17936;BME280;9093;52.062;4.508;2023-04-04T00:05:48;103381.53;;;7.12;52.45
17936;BME280;9093;52.062;4.508;2023-04-04T00:08:28;103385.09;;;7.14;52.60
17936;BME280;9093;52.062;4.508;2023-04-04T00:11:09;103382.44;;;7.14;52.48
17936;BME280;9093;52.062;4.508;2023-04-04T00:13:49;103388.63;;;7.13;52.28
17936;BME280;9093;52.062;4.508;2023-04-04T00:16:29;103385.09;;;7.13;52.80
17936;BME280;9093;52.062;4.508;2023-04-04T00:19:10;103379.75;;;7.11;52.53
17936;BME280;9093;52.062;4.508;2023-04-04T00:21:56;103370.88;;;7.09;52.57
17936;BME280;9093;52.062;4.508;2023-04-04T00:24:37;103365.59;;;7.06;52.76
17936;BME280;9093;52.062;4.508;2023-04-04T00:27:17;103363.81;;;6.99;53.00
17936;BME280;9093;52.062;4.508;2023-04-04T00:29:57;103366.44;;;6.92;52.95
17936;BME280;9093;52.062;4.508;2023-04-04T00:32:38;103365.56;;;6.88;53.06
17936;BME280;9093;52.062;4.508;2023-04-04T00:35:18;103367.34;;;6.92;53.00
17936;BME280;9093;52.062;4.508;2023-04-04T00:37:59;103365.56;;;6.91;53.30
17936;BME280;9093;52.062;4.508;2023-04-04T00:40:41;103362.03;;;6.89;53.28
17936;BME280;9093;52.062;4.508;2023-04-04T00:43:22;103372.63;;;6.86;52.91
17936;BME280;9093;52.062;4.508;2023-04-04T00:46:02;103377.94;;;6.83;52.97
17936;BME280;9093;52.062;4.508;2023-04-04T00:48:43;103361.97;;;6.77;53.53
17936;BME280;9093;52.062;4.508;2023-04-04T00:51:23;103364.63;;;6.72;53.43
17936;BME280;9093;52.062;4.508;2023-04-04T00:54:04;103369.97;;;6.69;53.74
17936;BME280;9093;52.062;4.508;2023-04-04T00:56:45;103362.88;;;6.68;53.41
17936;BME280;9093;52.062;4.508;2023-04-04T00:59:26;103374.34;;;6.60;53.84
17936;BME280;9093;52.062;4.508;2023-04-04T01:02:07;103372.56;;;6.59;53.71
17936;BME280;9093;52.062;4.508;2023-04-04T01:04:47;103376.09;;;6.58;53.92
17936;BME280;9093;52.062;4.508;2023-04-04T01:07:27;103371.69;;;6.55;53.96
17936;BME280;9093;52.062;4.508;2023-04-04T01:10:08;103365.50;;;6.56;53.60
17936;BME280;9093;52.062;4.508;2023-04-04T01:12:50;103367.22;;;6.53;53.82
17936;BME280;9093;52.062;4.508;2023-04-04T01:15:30;103363.69;;;6.44;53.99
17936;BME280;9093;52.062;4.508;2023-04-04T01:18:13;103367.19;;;6.40;54.01
17936;BME280;9093;52.062;4.508;2023-04-04T01:21:04;103364.53;;;6.39;54.27
17936;BME280;9093;52.062;4.508;2023-04-04T01:23:54;103352.16;;;6.35;54.19
17936;BME280;9093;52.062;4.508;2023-04-04T01:26:37;103351.22;;;6.28;54.50
17936;BME280;9093;52.062;4.508;2023-04-04T01:29:18;103353.00;;;6.23;54.42
17936;BME280;9093;52.062;4.508;2023-04-04T01:32:04;103354.75;;;6.24;54.41
17936;BME280;9093;52.062;4.508;2023-04-04T01:35:01;103350.34;;;6.25;54.38
17936;BME280;9093;52.062;4.508;2023-04-04T01:37:51;103351.22;;;6.22;54.67
17936;BME280;9093;52.062;4.508;2023-04-04T01:40:37;103356.53;;;6.19;54.86
17936;BME280;9093;52.062;4.508;2023-04-04T01:43:17;103351.22;;;6.22;54.65
17936;BME280;9093;52.062;4.508;2023-04-04T01:45:58;103349.44;;;6.18;54.67
17936;BME280;9093;52.062;4.508;2023-04-04T01:48:39;103349.41;;;6.15;54.96
17936;BME280;9093;52.062;4.508;2023-04-04T01:51:20;103362.69;;;6.20;54.81
17936;BME280;9093;52.062;4.508;2023-04-04T01:54:01;103357.41;;;6.18;54.78
17936;BME280;9093;52.062;4.508;2023-04-04T01:56:41;103360.03;;;6.18;54.57
17936;BME280;9093;52.062;4.508;2023-04-04T01:59:22;103352.94;;;6.14;54.93
17936;BME280;9093;52.062;4.508;2023-04-04T02:02:02;103357.38;;;6.12;54.85
17936;BME280;9093;52.062;4.508;2023-04-04T02:04:43;103363.50;;;6.08;55.14
17936;BME280;9093;52.062;4.508;2023-04-04T02:07:23;103360.00;;;6.06;55.17
17936;BME280;9093;52.062;4.508;2023-04-04T02:10:03;103354.66;;;6.03;55.17
17936;BME280;9093;52.062;4.508;2023-04-04T02:12:44;103358.19;;;6.02;55.25
17936;BME280;9093;52.062;4.508;2023-04-04T02:15:25;103355.50;;;5.96;55.24
17936;BME280;9093;52.062;4.508;2023-04-04T02:18:05;103358.19;;;5.99;55.06
17936;BME280;9093;52.062;4.508;2023-04-04T02:20:46;103373.22;;;5.98;54.95
17936;BME280;9093;52.062;4.508;2023-04-04T02:23:26;103370.53;;;5.94;55.35
17936;BME280;9093;52.062;4.508;2023-04-04T02:26:06;103368.75;;;5.93;55.17
17936;BME280;9093;52.062;4.508;2023-04-04T02:28:47;103369.63;;;5.90;55.25
17936;BME280;9093;52.062;4.508;2023-04-04T02:31:27;103365.19;;;5.88;55.27
17936;BME280;9093;52.062;4.508;2023-04-04T02:34:08;103364.31;;;5.87;55.27
17936;BME280;9093;52.062;4.508;2023-04-04T02:36:48;103360.75;;;5.87;55.43
17936;BME280;9093;52.062;4.508;2023-04-04T02:39:29;103349.19;;;5.82;55.41
17936;BME280;9093;52.062;4.508;2023-04-04T02:42:09;103348.31;;;5.78;55.34
17936;BME280;9093;52.062;4.508;2023-04-04T02:44:49;103350.03;;;5.73;55.68
17936;BME280;9093;52.062;4.508;2023-04-04T02:47:30;103349.13;;;5.70;55.47
17936;BME280;9093;52.062;4.508;2023-04-04T02:50:10;103335.00;;;5.71;55.77
17936;BME280;9093;52.062;4.508;2023-04-04T02:52:51;103343.81;;;5.66;55.65
17936;BME280;9093;52.062;4.508;2023-04-04T02:55:33;103330.53;;;5.63;55.78
17936;BME280;9093;52.062;4.508;2023-04-04T02:58:14;103328.75;;;5.61;55.79
17936;BME280;9093;52.062;4.508;2023-04-04T03:00:55;103329.63;;;5.58;56.01
17936;BME280;9093;52.062;4.508;2023-04-04T03:03:36;103328.72;;;5.58;56.05
17936;BME280;9093;52.062;4.508;2023-04-04T03:06:16;103326.06;;;5.53;56.02
17936;BME280;9093;52.062;4.508;2023-04-04T03:08:57;103334.91;;;5.55;55.86
17936;BME280;9093;52.062;4.508;2023-04-04T03:11:37;103328.72;;;5.56;55.75
17936;BME280;9093;52.062;4.508;2023-04-04T03:14:18;103325.22;;;5.56;55.85
17936;BME280;9093;52.062;4.508;2023-04-04T03:16:58;103336.66;;;5.56;55.84
17936;BME280;9093;52.062;4.508;2023-04-04T03:19:38;103343.69;;;5.48;56.12
17936;BME280;9093;52.062;4.508;2023-04-04T03:22:18;103332.22;;;5.48;56.03
17936;BME280;9093;52.062;4.508;2023-04-04T03:24:59;103344.59;;;5.49;56.13
17936;BME280;9093;52.062;4.508;2023-04-04T03:27:39;103340.13;;;5.43;56.02
17936;BME280;9093;52.062;4.508;2023-04-04T03:30:20;103348.94;;;5.42;55.91
17936;BME280;9093;52.062;4.508;2023-04-04T03:33:06;103348.03;;;5.39;55.92
17936;BME280;9093;52.062;4.508;2023-04-04T03:35:47;103347.13;;;5.38;56.03
17936;BME280;9093;52.062;4.508;2023-04-04T03:38:27;103337.34;;;5.26;56.31
17936;BME280;9093;52.062;4.508;2023-04-04T03:41:08;103352.34;;;5.26;56.22
17936;BME280;9093;52.062;4.508;2023-04-04T03:43:48;103353.25;;;5.28;56.60
17936;BME280;9093;52.062;4.508;2023-04-04T03:46:29;103361.22;;;5.31;56.25
17936;BME280;9093;52.062;4.508;2023-04-04T03:49:09;103353.22;;;5.26;56.51
17936;BME280;9093;52.062;4.508;2023-04-04T03:51:49;103343.53;;;5.24;56.21
17936;BME280;9093;52.062;4.508;2023-04-04T03:54:30;103350.53;;;5.17;56.49
17936;BME280;9093;52.062;4.508;2023-04-04T03:57:10;103342.56;;;5.16;56.41
17936;BME280;9093;52.062;4.508;2023-04-04T03:59:50;103334.56;;;5.13;56.80
17936;BME280;9093;52.062;4.508;2023-04-04T04:02:31;103346.00;;;5.06;56.58
17936;BME280;9093;52.062;4.508;2023-04-04T04:05:11;103340.72;;;5.09;56.76
17936;BME280;9093;52.062;4.508;2023-04-04T04:07:51;103343.41;;;5.13;56.63
17936;BME280;9093;52.062;4.508;2023-04-04T04:10:32;103340.75;;;5.10;56.81
17936;BME280;9093;52.062;4.508;2023-04-04T04:13:13;103336.31;;;5.08;56.60
17936;BME280;9093;52.062;4.508;2023-04-04T04:15:53;103345.97;;;5.03;56.63
17936;BME280;9093;52.062;4.508;2023-04-04T04:18:34;103341.50;;;4.96;57.16
17936;BME280;9093;52.062;4.508;2023-04-04T04:21:14;103339.75;;;5.01;56.79
17936;BME280;9093;52.062;4.508;2023-04-04T04:23:54;103343.28;;;5.00;56.77
17936;BME280;9093;52.062;4.508;2023-04-04T04:26:34;103342.41;;;4.98;56.84
17936;BME280;9093;52.062;4.508;2023-04-04T04:29:15;103336.19;;;4.96;57.04
17936;BME280;9093;52.062;4.508;2023-04-04T04:31:55;103335.28;;;4.91;56.83
17936;BME280;9093;52.062;4.508;2023-04-04T04:34:36;103340.53;;;4.89;56.83
17936;BME280;9093;52.062;4.508;2023-04-04T04:37:16;103341.44;;;4.90;56.97
17936;BME280;9093;52.062;4.508;2023-04-04T04:39:56;103339.66;;;4.89;56.73
17936;BME280;9093;52.062;4.508;2023-04-04T04:42:42;103341.38;;;4.80;57.20
17936;BME280;9093;52.062;4.508;2023-04-04T04:45:23;103349.25;;;4.77;57.36
17936;BME280;9093;52.062;4.508;2023-04-04T04:48:03;103347.38;;;4.66;57.61
17936;BME280;9093;52.062;4.508;2023-04-04T04:50:45;103345.56;;;4.62;57.67
17936;BME280;9093;52.062;4.508;2023-04-04T04:53:26;103350.91;;;4.65;57.76
17936;BME280;9093;52.062;4.508;2023-04-04T04:56:06;103341.22;;;4.68;57.73
17936;BME280;9093;52.062;4.508;2023-04-04T04:58:46;103344.84;;;4.76;57.38
17936;BME280;9093;52.062;4.508;2023-04-04T05:01:28;103342.13;;;4.70;57.56
17936;BME280;9093;52.062;4.508;2023-04-04T05:04:08;103341.16;;;4.62;57.69
17936;BME280;9093;52.062;4.508;2023-04-04T05:06:48;103347.28;;;4.55;57.61
17936;BME280;9093;52.062;4.508;2023-04-04T05:09:29;103357.00;;;4.59;57.79
17936;BME280;9093;52.062;4.508;2023-04-04T05:12:09;103354.44;;;4.65;57.56
17936;BME280;9093;52.062;4.508;2023-04-04T05:14:49;103355.28;;;4.64;57.39
17936;BME280;9093;52.062;4.508;2023-04-04T05:17:30;103354.34;;;4.58;57.72
17936;BME280;9093;52.062;4.508;2023-04-04T05:20:11;103366.66;;;4.54;57.66
17936;BME280;9093;52.062;4.508;2023-04-04T05:22:51;103371.03;;;4.52;57.74
17936;BME280;9093;52.062;4.508;2023-04-04T05:25:32;103361.38;;;4.54;57.90
17936;BME280;9093;52.062;4.508;2023-04-04T05:28:12;103371.03;;;4.52;57.68
17936;BME280;9093;52.062;4.508;2023-04-04T05:30:52;103370.97;;;4.46;58.22
17936;BME280;9093;52.062;4.508;2023-04-04T05:33:33;103377.13;;;4.45;58.18
17936;BME280;9093;52.062;4.508;2023-04-04T05:36:13;103378.94;;;4.48;57.87
17936;BME280;9093;52.062;4.508;2023-04-04T05:38:53;103369.31;;;4.54;58.09
17936;BME280;9093;52.062;4.508;2023-04-04T05:41:34;103371.09;;;4.58;57.84
17936;BME280;9093;52.062;4.508;2023-04-04T05:44:14;103373.75;;;4.58;57.67
17936;BME280;9093;52.062;4.508;2023-04-04T05:46:55;103378.25;;;4.65;58.03
17936;BME280;9093;52.062;4.508;2023-04-04T05:49:36;103370.34;;;4.67;57.54
17936;BME280;9093;52.062;4.508;2023-04-04T05:52:16;103368.59;;;4.70;57.60
17936;BME280;9093;52.062;4.508;2023-04-04T05:54:56;103371.28;;;4.73;57.59
17936;BME280;9093;52.062;4.508;2023-04-04T05:57:37;103365.13;;;4.77;57.38
17936;BME280;9093;52.062;4.508;2023-04-04T06:00:17;103367.84;;;4.80;57.40
17936;BME280;9093;52.062;4.508;2023-04-04T06:02:58;103363.38;;;4.78;57.83
17936;BME280;9093;52.062;4.508;2023-04-04T06:05:41;103360.69;;;4.73;57.97
17936;BME280;9093;52.062;4.508;2023-04-04T06:08:21;103362.41;;;4.70;57.75
17936;BME280;9093;52.062;4.508;2023-04-04T06:11:02;103362.41;;;4.67;57.99
17936;BME280;9093;52.062;4.508;2023-04-04T06:13:42;103365.94;;;4.70;57.84
17936;BME280;9093;52.062;4.508;2023-04-04T06:16:22;103369.50;;;4.72;58.26
17936;BME280;9093;52.062;4.508;2023-04-04T06:19:03;103367.84;;;4.80;58.06
17936;BME280;9093;52.062;4.508;2023-04-04T06:21:43;103366.06;;;4.82;57.83
17936;BME280;9093;52.062;4.508;2023-04-04T06:24:24;103366.94;;;4.81;57.91
17936;BME280;9093;52.062;4.508;2023-04-04T06:27:04;103366.97;;;4.84;58.11
17936;BME280;9093;52.062;4.508;2023-04-04T06:29:45;103369.63;;;4.84;58.05
17936;BME280;9093;52.062;4.508;2023-04-04T06:32:26;103364.34;;;4.88;57.83
17936;BME280;9093;52.062;4.508;2023-04-04T06:35:07;103374.97;;;4.91;58.19
17936;BME280;9093;52.062;4.508;2023-04-04T06:37:53;103372.34;;;4.92;58.14
17936;BME280;9093;52.062;4.508;2023-04-04T06:40:34;103366.19;;;4.92;58.27
17936;BME280;9093;52.062;4.508;2023-04-04T06:43:14;103360.00;;;4.93;58.01
17936;BME280;9093;52.062;4.508;2023-04-04T06:45:54;103360.03;;;4.96;58.02
17936;BME280;9093;52.062;4.508;2023-04-04T06:48:35;103360.06;;;4.99;58.29
17936;BME280;9093;52.062;4.508;2023-04-04T06:51:15;103357.41;;;4.99;58.20
17936;BME280;9093;52.062;4.508;2023-04-04T06:53:56;103357.47;;;5.05;58.19
17936;BME280;9093;52.062;4.508;2023-04-04T06:56:36;103372.47;;;5.04;58.18
17936;BME280;9093;52.062;4.508;2023-04-04T06:59:17;103376.88;;;5.07;58.38
17936;BME280;9093;52.062;4.508;2023-04-04T07:01:58;103366.34;;;5.10;58.41
17936;BME280;9093;52.062;4.508;2023-04-04T07:04:38;103372.53;;;5.13;58.43
17936;BME280;9093;52.062;4.508;2023-04-04T07:07:19;103366.38;;;5.14;58.52
17936;BME280;9093;52.062;4.508;2023-04-04T07:09:59;103369.91;;;5.13;58.62
17936;BME280;9093;52.062;4.508;2023-04-04T07:12:41;103371.69;;;5.16;58.49
17936;BME280;9093;52.062;4.508;2023-04-04T07:15:21;103379.66;;;5.17;58.27
17936;BME280;9093;52.062;4.508;2023-04-04T07:18:02;103381.44;;;5.20;58.62
17936;BME280;9093;52.062;4.508;2023-04-04T07:20:45;103381.50;;;5.24;58.53
17936;BME280;9093;52.062;4.508;2023-04-04T07:23:25;103393.00;;;5.31;58.59
17936;BME280;9093;52.062;4.508;2023-04-04T07:26:06;103389.47;;;5.32;58.64
17936;BME280;9093;52.062;4.508;2023-04-04T07:28:46;103383.31;;;5.33;58.42
17936;BME280;9093;52.062;4.508;2023-04-04T07:31:26;103384.22;;;5.38;58.61
17936;BME280;9093;52.062;4.508;2023-04-04T07:34:07;103385.19;;;5.43;58.60
17936;BME280;9093;52.062;4.508;2023-04-04T07:36:47;103380.78;;;5.48;58.59
17936;BME280;9093;52.062;4.508;2023-04-04T07:39:28;103387.00;;;5.53;58.36
17936;BME280;9093;52.062;4.508;2023-04-04T07:42:08;103385.28;;;5.55;58.29
17936;BME280;9093;52.062;4.508;2023-04-04T07:44:49;103387.91;;;5.57;58.25
17936;BME280;9093;52.062;4.508;2023-04-04T07:47:29;103383.50;;;5.57;58.21
17936;BME280;9093;52.062;4.508;2023-04-04T07:50:10;103382.63;;;5.58;58.72
17936;BME280;9093;52.062;4.508;2023-04-04T07:52:51;103376.47;;;5.61;58.60
17936;BME280;9093;52.062;4.508;2023-04-04T07:55:31;103380.88;;;5.63;58.66
17936;BME280;9093;52.062;4.508;2023-04-04T07:58:12;103381.81;;;5.67;58.48
17936;BME280;9093;52.062;4.508;2023-04-04T08:00:52;103381.81;;;5.70;58.41
17936;BME280;9093;52.062;4.508;2023-04-04T08:03:32;103371.25;;;5.73;58.80
17936;BME280;9093;52.062;4.508;2023-04-04T08:06:12;103358.00;;;5.78;58.49
17936;BME280;9093;52.062;4.508;2023-04-04T08:08:53;103366.88;;;5.83;58.77
17936;BME280;9093;52.062;4.508;2023-04-04T08:11:33;103358.06;;;5.84;58.59
17936;BME280;9093;52.062;4.508;2023-04-04T08:14:13;103360.75;;;5.87;58.49
17936;BME280;9093;52.062;4.508;2023-04-04T08:16:54;103358.13;;;5.90;58.81
17936;BME280;9093;52.062;4.508;2023-04-04T08:19:34;103368.75;;;5.96;58.62
17936;BME280;9093;52.062;4.508;2023-04-04T08:22:15;103365.28;;;6.00;58.69
17936;BME280;9093;52.062;4.508;2023-04-04T08:24:55;103367.03;;;6.04;58.71
17936;BME280;9093;52.062;4.508;2023-04-04T08:27:38;103365.28;;;6.09;58.48
17936;BME280;9093;52.062;4.508;2023-04-04T08:30:19;103358.25;;;6.13;58.34
17936;BME280;9093;52.062;4.508;2023-04-04T08:32:59;103358.28;;;6.17;58.37
17936;BME280;9093;52.062;4.508;2023-04-04T08:35:40;103363.56;;;6.20;58.57
17936;BME280;9093;52.062;4.508;2023-04-04T08:38:20;103356.50;;;6.22;58.28
17936;BME280;9093;52.062;4.508;2023-04-04T08:41:00;103352.13;;;6.26;58.42
17936;BME280;9093;52.062;4.508;2023-04-04T08:43:43;103347.69;;;6.26;58.26
17936;BME280;9093;52.062;4.508;2023-04-04T08:46:26;103351.22;;;6.28;58.34
17936;BME280;9093;52.062;4.508;2023-04-04T08:49:07;103346.84;;;6.36;58.24
17936;BME280;9093;52.062;4.508;2023-04-04T08:51:50;103349.50;;;6.39;58.20
17936;BME280;9093;52.062;4.508;2023-04-04T08:54:33;103351.28;;;6.42;58.01
17936;BME280;9093;52.062;4.508;2023-04-04T08:57:14;103348.63;;;6.45;58.36
17936;BME280;9093;52.062;4.508;2023-04-04T08:59:54;103354.84;;;6.49;57.78
17936;BME280;9093;52.062;4.508;2023-04-04T09:02:41;103346.91;;;6.55;57.83
17936;BME280;9093;52.062;4.508;2023-04-04T09:05:23;103349.56;;;6.61;57.92
17936;BME280;9093;52.062;4.508;2023-04-04T09:08:04;103346.06;;;6.68;57.74
17936;BME280;9093;52.062;4.508;2023-04-04T09:10:48;103344.28;;;6.73;57.51
17936;BME280;9093;52.062;4.508;2023-04-04T09:13:28;103349.59;;;6.79;57.41
17936;BME280;9093;52.062;4.508;2023-04-04T09:16:09;103346.06;;;6.86;57.10
17936;BME280;9093;52.062;4.508;2023-04-04T09:18:49;103347.84;;;6.90;56.96
17936;BME280;9093;52.062;4.508;2023-04-04T09:21:32;103352.28;;;6.93;56.80
17936;BME280;9093;52.062;4.508;2023-04-04T09:24:13;103343.44;;;6.97;57.10
17936;BME280;9093;52.062;4.508;2023-04-04T09:26:54;103339.91;;;7.01;56.99
17936;BME280;9093;52.062;4.508;2023-04-04T09:29:37;103337.25;;;7.05;56.73
17936;BME280;9093;52.062;4.508;2023-04-04T09:32:19;103343.44;;;7.10;56.88
17936;BME280;9093;52.062;4.508;2023-04-04T09:35:00;103337.22;;;7.08;56.95
17936;BME280;9093;52.062;4.508;2023-04-04T09:37:41;103346.09;;;7.18;56.67
17936;BME280;9093;52.062;4.508;2023-04-04T09:40:23;103340.78;;;7.22;56.25
17936;BME280;9093;52.062;4.508;2023-04-04T09:43:06;103337.25;;;7.26;56.40
17936;BME280;9093;52.062;4.508;2023-04-04T09:45:49;103339.03;;;7.32;56.06
17936;BME280;9093;52.062;4.508;2023-04-04T09:48:32;103335.47;;;7.38;56.21
17936;BME280;9093;52.062;4.508;2023-04-04T09:51:13;103335.47;;;7.38;56.12
17936;BME280;9093;52.062;4.508;2023-04-04T09:53:57;103333.69;;;7.43;56.08
17936;BME280;9093;52.062;4.508;2023-04-04T09:56:37;103344.34;;;7.46;56.10
17936;BME280;9093;52.062;4.508;2023-04-04T09:59:18;103339.00;;;7.49;55.64
17936;BME280;9093;52.062;4.508;2023-04-04T10:02:00;103345.22;;;7.52;55.91
17936;BME280;9093;52.062;4.508;2023-04-04T10:04:41;103337.22;;;7.57;55.67
17936;BME280;9093;52.062;4.508;2023-04-04T10:07:29;103330.09;;;7.59;55.63
17936;BME280;9093;52.062;4.508;2023-04-04T10:10:09;103331.00;;;7.64;55.35
17936;BME280;9093;52.062;4.508;2023-04-04T10:12:51;103337.19;;;7.67;55.04
17936;BME280;9093;52.062;4.508;2023-04-04T10:15:35;103326.56;;;7.69;55.22
17936;BME280;9093;52.062;4.508;2023-04-04T10:18:18;103333.63;;;7.73;55.11
17936;BME280;9093;52.062;4.508;2023-04-04T10:21:04;103340.72;;;7.77;55.22
17936;BME280;9093;52.062;4.508;2023-04-04T10:23:47;103336.28;;;7.82;54.99
17936;BME280;9093;52.062;4.508;2023-04-04T10:26:27;103331.81;;;7.87;55.05
17936;BME280;9093;52.062;4.508;2023-04-04T10:29:08;103328.28;;;7.88;54.99
17936;BME280;9093;52.062;4.508;2023-04-04T10:31:52;103330.03;;;7.92;54.82
17936;BME280;9093;52.062;4.508;2023-04-04T10:35:06;103321.16;;;7.95;54.71
17936;BME280;9093;52.062;4.508;2023-04-04T10:37:58;103318.47;;;7.98;54.97
17936;BME280;9093;52.062;4.508;2023-04-04T10:40:41;103315.81;;;8.02;54.60
17936;BME280;9093;52.062;4.508;2023-04-04T10:43:24;103314.03;;;8.07;54.76
17936;BME280;9093;52.062;4.508;2023-04-04T10:46:10;103308.66;;;8.12;54.57
17936;BME280;9093;52.062;4.508;2023-04-04T10:48:52;103298.00;;;8.17;54.54
17936;BME280;9093;52.062;4.508;2023-04-04T10:51:33;103288.25;;;8.22;54.25
17936;BME280;9093;52.062;4.508;2023-04-04T10:54:13;103286.44;;;8.27;53.99
17936;BME280;9093;52.062;4.508;2023-04-04T10:56:54;103285.53;;;8.34;53.89
17936;BME280;9093;52.062;4.508;2023-04-04T10:59:56;103284.63;;;8.36;53.96
17936;BME280;9093;52.062;4.508;2023-04-04T11:02:56;103283.69;;;8.42;53.91
17936;BME280;9093;52.062;4.508;2023-04-04T11:05:37;103286.31;;;8.48;53.80
17936;BME280;9093;52.062;4.508;2023-04-04T11:08:27;103280.09;;;8.51;53.73
17936;BME280;9093;52.062;4.508;2023-04-04T11:11:07;103264.13;;;8.52;53.89
17936;BME280;9093;52.062;4.508;2023-04-04T11:13:58;103274.72;;;8.58;53.54
17936;BME280;9093;52.062;4.508;2023-04-04T11:16:45;103276.47;;;8.64;53.28
17936;BME280;9093;52.062;4.508;2023-04-04T11:19:28;103267.53;;;8.69;53.15
17936;BME280;9093;52.062;4.508;2023-04-04T11:22:09;103262.22;;;8.72;53.13
17936;BME280;9093;52.062;4.508;2023-04-04T11:24:58;103256.84;;;8.75;53.00
17936;BME280;9093;52.062;4.508;2023-04-04T11:27:39;103264.78;;;8.81;52.80
17936;BME280;9093;52.062;4.508;2023-04-04T11:30:20;103255.91;;;8.84;52.39
17936;BME280;9093;52.062;4.508;2023-04-04T11:33:01;103259.41;;;8.91;52.18
17936;BME280;9093;52.062;4.508;2023-04-04T11:35:45;103253.97;;;8.98;52.22
17936;BME280;9093;52.062;4.508;2023-04-04T11:38:27;103257.47;;;9.05;51.92
17936;BME280;9093;52.062;4.508;2023-04-04T11:41:08;103251.22;;;9.09;52.09
17936;BME280;9093;52.062;4.508;2023-04-04T11:43:49;103249.41;;;9.14;51.88
17936;BME280;9093;52.062;4.508;2023-04-04T11:46:31;103246.66;;;9.20;51.94
17936;BME280;9093;52.062;4.508;2023-04-04T11:49:13;103243.06;;;9.25;51.92
17936;BME280;9093;52.062;4.508;2023-04-04T11:51:53;103236.78;;;9.31;51.99
17936;BME280;9093;52.062;4.508;2023-04-04T11:54:34;103236.72;;;9.37;51.77
17936;BME280;9093;52.062;4.508;2023-04-04T11:57:16;103225.97;;;9.43;51.61
17936;BME280;9093;52.062;4.508;2023-04-04T11:59:57;103229.44;;;9.51;51.22
17936;BME280;9093;52.062;4.508;2023-04-04T12:02:37;103226.66;;;9.62;50.80
17936;BME280;9093;52.062;4.508;2023-04-04T12:05:18;103233.66;;;9.72;50.97
17936;BME280;9093;52.062;4.508;2023-04-04T12:07:59;103229.06;;;9.82;50.81
17936;BME280;9093;52.062;4.508;2023-04-04T12:10:41;103221.84;;;9.90;50.56
17936;BME280;9093;52.062;4.508;2023-04-04T12:13:29;103220.81;;;10.00;50.40
17936;BME280;9093;52.062;4.508;2023-04-04T12:16:10;103222.50;;;10.08;50.01
17936;BME280;9093;52.062;4.508;2023-04-04T12:18:50;103217.97;;;10.17;50.01
17936;BME280;9093;52.062;4.508;2023-04-04T12:21:31;103219.66;;;10.22;49.61
17936;BME280;9093;52.062;4.508;2023-04-04T12:24:12;103216.81;;;10.34;49.16
17936;BME280;9093;52.062;4.508;2023-04-04T12:26:53;103203.28;;;10.43;48.96
17936;BME280;9093;52.062;4.508;2023-04-04T12:29:34;103215.63;;;10.54;48.82
17936;BME280;9093;52.062;4.508;2023-04-04T12:32:16;103205.66;;;10.63;48.92
17936;BME280;9093;52.062;4.508;2023-04-04T12:35:00;103203.72;;;10.73;48.86
17936;BME280;9093;52.062;4.508;2023-04-04T12:38:01;103191.94;;;10.83;48.63
17936;BME280;9093;52.062;4.508;2023-04-04T12:40:43;103205.16;;;10.94;48.39
17936;BME280;9093;52.062;4.508;2023-04-04T12:43:27;103197.84;;;11.03;48.10
17936;BME280;9093;52.062;4.508;2023-04-04T12:46:10;103187.81;;;11.14;47.92
17936;BME280;9093;52.062;4.508;2023-04-04T12:48:51;103192.09;;;11.24;48.06
17936;BME280;9093;52.062;4.508;2023-04-04T12:51:32;103182.09;;;11.33;47.66
17936;BME280;9093;52.062;4.508;2023-04-04T12:54:28;103176.50;;;11.45;47.26
17936;BME280;9093;52.062;4.508;2023-04-04T12:57:09;103170.94;;;11.57;47.25
17936;BME280;9093;52.062;4.508;2023-04-04T12:59:53;103166.22;;;11.68;47.16
17936;BME280;9093;52.062;4.508;2023-04-04T13:02:34;103168.66;;;11.80;46.95
17936;BME280;9093;52.062;4.508;2023-04-04T13:05:15;103166.56;;;11.94;46.65
17936;BME280;9093;52.062;4.508;2023-04-04T13:08:07;103168.06;;;12.07;46.55
17936;BME280;9093;52.062;4.508;2023-04-04T13:11:03;103158.78;;;12.21;46.38
17936;BME280;9093;52.062;4.508;2023-04-04T13:13:45;103147.81;;;12.33;46.27
17936;BME280;9093;52.062;4.508;2023-04-04T13:16:31;103149.31;;;12.43;45.95
17936;BME280;9093;52.062;4.508;2023-04-04T13:19:12;103141.88;;;12.54;45.96
17936;BME280;9093;52.062;4.508;2023-04-04T13:21:52;103134.53;;;12.62;45.86
17936;BME280;9093;52.062;4.508;2023-04-04T13:24:33;103137.91;;;12.70;45.94
17936;BME280;9093;52.062;4.508;2023-04-04T13:27:13;103131.38;;;12.80;45.72
17936;BME280;9093;52.062;4.508;2023-04-04T13:29:53;103135.47;;;12.94;45.44
17936;BME280;9093;52.062;4.508;2023-04-04T13:32:34;103126.34;;;13.01;45.35
17936;BME280;9093;52.062;4.508;2023-04-04T13:35:14;103135.03;;;13.09;45.26
17936;BME280;9093;52.062;4.508;2023-04-04T13:37:55;103118.75;;;13.18;45.17
17936;BME280;9093;52.062;4.508;2023-04-04T13:40:35;103124.81;;;13.24;45.21
17936;BME280;9093;52.062;4.508;2023-04-04T13:43:15;103116.53;;;13.32;45.18
17936;BME280;9093;52.062;4.508;2023-04-04T13:45:56;103116.25;;;13.41;45.34
17936;BME280;9093;52.062;4.508;2023-04-04T13:48:36;103109.78;;;13.48;45.43
17936;BME280;9093;52.062;4.508;2023-04-04T13:51:16;103110.44;;;13.56;45.31
17936;BME280;9093;52.062;4.508;2023-04-04T13:53:57;103101.34;;;13.60;45.12
17936;BME280;9093;52.062;4.508;2023-04-04T13:56:37;103093.19;;;13.65;45.09
17936;BME280;9093;52.062;4.508;2023-04-04T13:59:17;103092.13;;;13.71;44.86
17936;BME280;9093;52.062;4.508;2023-04-04T14:01:57;103091.91;;;13.77;45.19
17936;BME280;9093;52.062;4.508;2023-04-04T14:04:38;103081.78;;;13.85;44.77
17936;BME280;9093;52.062;4.508;2023-04-04T14:07:18;103087.91;;;13.90;44.53
17936;BME280;9093;52.062;4.508;2023-04-04T14:09:59;103080.78;;;13.89;44.72
17936;BME280;9093;52.062;4.508;2023-04-04T14:12:39;103076.25;;;13.91;44.48
17936;BME280;9093;52.062;4.508;2023-04-04T14:15:19;103086.91;;;13.92;44.48
17936;BME280;9093;52.062;4.508;2023-04-04T14:18:00;103082.75;;;13.84;44.43
17936;BME280;9093;52.062;4.508;2023-04-04T14:20:40;103075.09;;;13.72;44.43
17936;BME280;9093;52.062;4.508;2023-04-04T14:23:20;103079.88;;;13.60;44.61
17936;BME280;9093;52.062;4.508;2023-04-04T14:26:01;103075.88;;;13.46;44.81